Time;durP1;ratioP1;P1;durP2;ratioP2;P2;SDS_P1;SDS_P2;PMS_P1;PMS_P2;Temp;Humidity;BMP_temperature;BMP_pressure;BME280_temperature;BME280_humidity;BME280_pressure;Samples;Min_cycle;Max_cycle;Signal;HPM_P1;HPM_P2
2023/03/03 00:00:50;;;;;;;53.33;30.20;;;;;;;;;;4960835;28;20220;-75
2023/03/03 00:03:21;;;;;;;51.57;30.43;;;;;;;;;;4960009;28;20501;-75
2023/03/03 00:05:49;;;;;;;52.37;30.20;;;;;;;;;;4960786;28;20205;-76
2023/03/03 00:08:17;;;;;;;53.13;30.70;;;;;;;;;;4965031;28;20721;-76
2023/03/03 00:10:44;;;;;;;48.73;28.80;;;;;;;;;;4968307;28;20239;-78
2023/03/03 00:13:16;;;;;;;49.87;28.90;;;;;;;;;;4979821;28;20291;-76
2023/03/03 00:15:43;;;;;;;50.23;28.53;;;;;;;;;;4979132;28;20244;-78
2023/03/03 00:18:22;;;;;;;50.43;29.50;;;;;;;;;;4975531;28;20278;-78
2023/03/03 00:20:53;;;;;;;52.10;29.37;;;;;;;;;;4975570;28;20566;-77
2023/03/03 00:23:28;;;;;;;50.00;28.83;;;;;;;;;;4986605;28;20207;-78
2023/03/03 00:25:56;;;;;;;53.00;30.03;;;;;;;;;;4966792;28;20203;-77
2023/03/03 00:28:23;;;;;;;54.23;29.80;;;;;;;;;;4960702;28;20217;-77
2023/03/03 00:30:55;;;;;;;58.27;32.97;;;;;;;;;;4955658;28;20236;-77
2023/03/03 00:33:33;;;;;;;55.67;31.27;;;;;;;;;;4956333;28;20726;-76
2023/03/03 00:36:20;;;;;;;53.97;30.43;;;;;;;;;;4962621;28;20301;-77
2023/03/03 00:38:48;;;;;;;54.40;31.10;;;;;;;;;;4963102;28;20310;-76
2023/03/03 00:41:20;;;;;;;55.47;31.57;;;;;;;;;;4954891;28;20235;-76
2023/03/03 00:43:47;;;;;;;56.80;31.80;;;;;;;;;;4963894;28;20267;-76
2023/03/03 00:46:18;;;;;;;56.60;32.43;;;;;;;;;;4955589;28;21068;-76
2023/03/03 00:48:46;;;;;;;52.93;31.77;;;;;;;;;;4958408;28;20275;-76
2023/03/03 00:51:22;;;;;;;54.67;30.47;;;;;;;;;;4962844;28;20233;-77
2023/03/03 00:53:49;;;;;;;53.57;30.20;;;;;;;;;;4952140;28;20206;-77
2023/03/03 00:56:17;;;;;;;53.13;29.80;;;;;;;;;;4961546;28;20220;-76
2023/03/03 00:58:46;;;;;;;56.27;30.93;;;;;;;;;;4966528;28;20237;-77
2023/03/03 01:01:14;;;;;;;51.90;31.20;;;;;;;;;;4958474;28;20233;-76
2023/03/03 01:03:41;;;;;;;56.00;30.63;;;;;;;;;;4958110;28;20204;-77
2023/03/03 01:06:09;;;;;;;53.93;29.97;;;;;;;;;;4958719;28;20216;-76
2023/03/03 01:08:36;;;;;;;55.27;30.43;;;;;;;;;;4960723;28;20203;-77
2023/03/03 01:11:05;;;;;;;54.63;31.37;;;;;;;;;;4957080;28;20934;-78
2023/03/03 01:13:33;;;;;;;52.17;30.50;;;;;;;;;;4966314;28;20208;-76
2023/03/03 01:16:04;;;;;;;54.20;30.20;;;;;;;;;;4954643;28;20208;-77
2023/03/03 01:18:32;;;;;;;58.67;30.23;;;;;;;;;;4961141;28;21007;-78
2023/03/03 01:21:00;;;;;;;52.73;30.43;;;;;;;;;;4958806;28;20318;-76
2023/03/03 01:23:28;;;;;;;55.80;31.00;;;;;;;;;;4961858;28;20215;-79
2023/03/03 01:25:55;;;;;;;54.83;31.57;;;;;;;;;;4958020;28;20205;-78
2023/03/03 01:28:22;;;;;;;51.57;30.33;;;;;;;;;;4963572;28;20223;-79
2023/03/03 01:30:50;;;;;;;51.67;30.87;;;;;;;;;;4954713;28;20235;-78
2023/03/03 01:33:21;;;;;;;49.47;29.73;;;;;;;;;;4984666;28;20577;-77
2023/03/03 01:35:49;;;;;;;52.53;29.03;;;;;;;;;;4969385;28;20220;-77
2023/03/03 01:38:16;;;;;;;55.63;29.70;;;;;;;;;;4974285;28;20236;-78
2023/03/03 01:40:52;;;;;;;52.40;30.07;;;;;;;;;;4975700;28;20373;-79
2023/03/03 01:43:19;;;;;;;51.83;29.70;;;;;;;;;;4969105;28;20700;-78
2023/03/03 01:45:49;;;;;;;57.60;30.50;;;;;;;;;;4959722;28;20200;-77
2023/03/03 01:48:34;;;;;;;51.43;29.97;;;;;;;;;;4957717;28;20209;-78
2023/03/03 01:51:03;;;;;;;49.87;29.57;;;;;;;;;;4960295;28;20243;-78
2023/03/03 01:53:43;;;;;;;49.17;28.60;;;;;;;;;;4968842;28;20208;-77
2023/03/03 01:56:10;;;;;;;47.00;28.80;;;;;;;;;;4963953;28;20200;-77
2023/03/03 01:58:44;;;;;;;54.87;29.47;;;;;;;;;;4961670;28;20258;-77
2023/03/03 02:01:14;;;;;;;52.10;31.07;;;;;;;;;;4957511;28;20247;-77
2023/03/03 02:03:43;;;;;;;52.13;29.13;;;;;;;;;;4955498;28;20201;-77
2023/03/03 02:06:12;;;;;;;53.53;29.53;;;;;;;;;;4953412;28;20215;-78
2023/03/03 02:08:59;;;;;;;55.33;30.47;;;;;;;;;;4965498;28;20208;-78
2023/03/03 02:11:27;;;;;;;57.23;30.97;;;;;;;;;;4962922;28;20238;-79
2023/03/03 02:13:54;;;;;;;50.50;29.17;;;;;;;;;;4962538;28;20212;-78
2023/03/03 02:16:21;;;;;;;56.23;29.87;;;;;;;;;;4955911;28;20212;-79
2023/03/03 02:18:49;;;;;;;54.07;30.13;;;;;;;;;;4957601;28;20266;-79
2023/03/03 02:21:17;;;;;;;55.43;29.70;;;;;;;;;;4953140;28;20343;-79
2023/03/03 02:24:05;;;;;;;51.17;29.13;;;;;;;;;;4959497;28;20209;-78
2023/03/03 02:26:34;;;;;;;50.33;29.37;;;;;;;;;;4958426;28;20224;-79
2023/03/03 02:29:01;;;;;;;53.30;29.70;;;;;;;;;;4973068;28;20211;-77
2023/03/03 02:31:30;;;;;;;53.57;30.53;;;;;;;;;;4964774;28;20324;-78
2023/03/03 02:33:58;;;;;;;58.47;31.00;;;;;;;;;;4961168;28;20224;-79
2023/03/03 02:36:31;;;;;;;52.27;30.47;;;;;;;;;;4962698;28;20682;-78
2023/03/03 02:39:02;;;;;;;51.63;28.97;;;;;;;;;;4962491;28;20312;-77
2023/03/03 02:41:30;;;;;;;48.80;29.27;;;;;;;;;;4962621;28;20229;-78
2023/03/03 02:43:59;;;;;;;52.67;29.20;;;;;;;;;;4968050;28;20201;-78
2023/03/03 02:46:28;;;;;;;53.87;30.93;;;;;;;;;;4960186;28;20295;-78
2023/03/03 02:48:55;;;;;;;52.77;30.03;;;;;;;;;;4962691;28;20243;-77
2023/03/03 02:51:23;;;;;;;51.63;29.30;;;;;;;;;;4962531;28;20260;-77
2023/03/03 02:53:50;;;;;;;54.53;30.43;;;;;;;;;;4964579;28;20204;-78
2023/03/03 02:56:17;;;;;;;48.97;27.80;;;;;;;;;;4959816;28;20215;-79
2023/03/03 02:58:45;;;;;;;56.33;29.97;;;;;;;;;;4963151;28;20217;-78
2023/03/03 03:01:12;;;;;;;56.17;29.67;;;;;;;;;;4961594;28;20243;-78
2023/03/03 03:03:40;;;;;;;54.77;29.90;;;;;;;;;;4961997;28;20208;-78
2023/03/03 03:06:07;;;;;;;52.97;28.67;;;;;;;;;;4959444;28;23570;-76
2023/03/03 03:08:34;;;;;;;54.17;30.23;;;;;;;;;;4966043;28;20736;-77
2023/03/03 03:11:02;;;;;;;53.87;30.90;;;;;;;;;;4965048;28;20265;-78
2023/03/03 03:13:30;;;;;;;57.27;31.60;;;;;;;;;;4970723;28;20200;-78
2023/03/03 03:15:58;;;;;;;50.27;29.57;;;;;;;;;;4965608;28;20209;-78
2023/03/03 03:18:25;;;;;;;54.07;29.87;;;;;;;;;;4968807;28;20224;-77
2023/03/03 03:20:53;;;;;;;54.70;29.87;;;;;;;;;;4965271;28;20224;-78
2023/03/03 03:23:20;;;;;;;53.30;30.27;;;;;;;;;;4967015;28;20204;-77
2023/03/03 03:25:50;;;;;;;53.43;29.33;;;;;;;;;;4970094;28;20243;-78
2023/03/03 03:28:18;;;;;;;55.87;31.50;;;;;;;;;;4965627;28;20322;-77
2023/03/03 03:30:45;;;;;;;53.10;30.03;;;;;;;;;;4972744;28;20232;-77
2023/03/03 03:33:16;;;;;;;59.13;31.40;;;;;;;;;;4987603;28;20200;-78
2023/03/03 03:35:45;;;;;;;53.37;30.30;;;;;;;;;;4976512;28;20201;-77
2023/03/03 03:38:13;;;;;;;59.07;30.77;;;;;;;;;;4968608;28;20678;-78
2023/03/03 03:40:41;;;;;;;54.03;30.17;;;;;;;;;;4974422;28;20224;-77
2023/03/03 03:43:08;;;;;;;54.00;29.80;;;;;;;;;;4964273;28;20590;-77
2023/03/03 03:45:35;;;;;;;54.90;29.03;;;;;;;;;;4956164;28;20216;-76
2023/03/03 03:48:04;;;;;;;53.23;29.13;;;;;;;;;;4961961;28;20205;-77
2023/03/03 03:50:31;;;;;;;57.27;30.37;;;;;;;;;;4965910;28;20584;-76
2023/03/03 03:52:58;;;;;;;54.67;31.07;;;;;;;;;;4960170;28;20216;-79
2023/03/03 03:55:25;;;;;;;57.27;30.57;;;;;;;;;;4964864;28;20295;-77
2023/03/03 03:57:53;;;;;;;55.73;30.20;;;;;;;;;;4961185;28;20220;-76
2023/03/03 04:00:20;;;;;;;57.00;30.23;;;;;;;;;;4955247;28;25034;-77
2023/03/03 04:02:47;;;;;;;54.83;31.67;;;;;;;;;;4957582;28;20220;-76
2023/03/03 04:05:15;;;;;;;74.93;39.63;;;;;;;;;;4958719;28;20205;-78
2023/03/03 04:07:42;;;;;;;67.17;37.27;;;;;;;;;;4958637;28;20219;-78
2023/03/03 04:10:09;;;;;;;63.17;35.17;;;;;;;;;;4957543;28;20208;-77
2023/03/03 04:12:37;;;;;;;65.17;34.70;;;;;;;;;;4973823;28;20214;-76
2023/03/03 04:15:06;;;;;;;67.77;37.43;;;;;;;;;;4974971;28;20219;-78
2023/03/03 04:17:33;;;;;;;75.73;36.80;;;;;;;;;;4985854;28;20773;-77
2023/03/03 04:20:01;;;;;;;78.33;39.27;;;;;;;;;;4970037;28;20239;-77
2023/03/03 04:22:32;;;;;;;62.20;34.00;;;;;;;;;;4970644;28;20315;-78
2023/03/03 04:25:03;;;;;;;62.00;33.97;;;;;;;;;;4963336;28;20196;-77
2023/03/03 04:27:34;;;;;;;61.87;33.13;;;;;;;;;;4955656;28;20228;-77
2023/03/03 04:30:03;;;;;;;62.07;33.07;;;;;;;;;;4960779;28;20204;-77
2023/03/03 04:32:32;;;;;;;62.67;33.87;;;;;;;;;;4962582;28;20223;-76
2023/03/03 04:34:59;;;;;;;60.17;33.47;;;;;;;;;;4967606;28;20220;-76
2023/03/03 04:37:35;;;;;;;62.40;34.57;;;;;;;;;;4956887;28;20847;-76
2023/03/03 04:40:03;;;;;;;65.23;33.97;;;;;;;;;;4958354;28;20228;-75
2023/03/03 04:42:30;;;;;;;62.60;33.67;;;;;;;;;;4966691;28;20212;-76
2023/03/03 04:44:58;;;;;;;60.27;33.23;;;;;;;;;;4951005;28;20208;-78
2023/03/03 04:47:25;;;;;;;60.30;32.50;;;;;;;;;;4976015;28;20497;-77
2023/03/03 04:49:53;;;;;;;58.37;31.90;;;;;;;;;;4967815;28;20214;-76
2023/03/03 04:52:20;;;;;;;64.10;33.53;;;;;;;;;;4960903;28;20238;-76
2023/03/03 04:54:47;;;;;;;61.23;33.43;;;;;;;;;;4959055;28;20218;-76
2023/03/03 04:57:15;;;;;;;62.53;32.97;;;;;;;;;;4952595;28;20220;-76
2023/03/03 04:59:42;;;;;;;59.73;33.33;;;;;;;;;;4959484;28;20585;-78
2023/03/03 05:02:09;;;;;;;66.30;34.83;;;;;;;;;;4961425;28;20364;-78
2023/03/03 05:04:37;;;;;;;62.63;34.20;;;;;;;;;;4955342;28;21989;-75
2023/03/03 05:07:04;;;;;;;59.17;32.70;;;;;;;;;;4956024;28;20253;-77
2023/03/03 05:09:31;;;;;;;64.67;33.57;;;;;;;;;;4966574;28;20209;-77
2023/03/03 05:11:59;;;;;;;60.43;33.33;;;;;;;;;;4959389;28;20236;-76
2023/03/03 05:14:26;;;;;;;61.07;33.17;;;;;;;;;;4959507;28;20216;-74
2023/03/03 05:16:54;;;;;;;59.20;32.53;;;;;;;;;;4945786;28;20209;-75
2023/03/03 05:19:21;;;;;;;62.67;33.37;;;;;;;;;;4952380;28;20260;-76
2023/03/03 05:21:48;;;;;;;65.80;34.70;;;;;;;;;;4963737;28;20962;-77
2023/03/03 05:24:16;;;;;;;63.07;33.90;;;;;;;;;;4951059;28;20213;-77
2023/03/03 05:26:43;;;;;;;62.87;33.43;;;;;;;;;;4954756;28;20224;-76
2023/03/03 05:29:10;;;;;;;61.67;33.27;;;;;;;;;;4952515;28;20210;-75
2023/03/03 05:31:37;;;;;;;61.60;34.30;;;;;;;;;;4963571;28;23477;-77
2023/03/03 05:34:04;;;;;;;63.60;34.37;;;;;;;;;;4971628;28;20675;-78
2023/03/03 05:36:32;;;;;;;61.87;33.90;;;;;;;;;;4979646;28;20231;-76
2023/03/03 05:38:59;;;;;;;63.07;33.53;;;;;;;;;;4976220;28;20223;-78
2023/03/03 05:41:26;;;;;;;63.40;33.87;;;;;;;;;;4963111;28;20228;-76
2023/03/03 05:43:53;;;;;;;60.63;32.47;;;;;;;;;;4954673;28;20354;-78
2023/03/03 05:46:20;;;;;;;58.83;33.43;;;;;;;;;;4955841;28;20211;-76
2023/03/03 05:48:48;;;;;;;59.97;33.23;;;;;;;;;;4960945;28;20208;-75
2023/03/03 05:51:15;;;;;;;61.40;33.80;;;;;;;;;;4956931;28;20242;-74
2023/03/03 05:53:42;;;;;;;65.50;34.03;;;;;;;;;;4961519;28;20204;-76
2023/03/03 05:56:09;;;;;;;61.53;33.17;;;;;;;;;;4956399;28;20215;-76
2023/03/03 05:58:37;;;;;;;60.50;32.63;;;;;;;;;;4958296;28;20750;-76
2023/03/03 06:01:04;;;;;;;62.37;33.30;;;;;;;;;;4948908;28;20282;-74
2023/03/03 06:03:31;;;;;;;58.17;32.93;;;;;;;;;;4953998;28;20321;-78
2023/03/03 06:05:58;;;;;;;57.50;33.30;;;;;;;;;;4953271;28;25046;-76
2023/03/03 06:08:25;;;;;;;62.80;33.53;;;;;;;;;;4960876;28;20204;-76
2023/03/03 06:10:53;;;;;;;59.37;32.63;;;;;;;;;;4958912;28;20231;-77
2023/03/03 06:13:20;;;;;;;61.50;32.60;;;;;;;;;;4953227;28;20220;-75
2023/03/03 06:15:47;;;;;;;62.97;33.63;;;;;;;;;;4955257;28;20322;-76
2023/03/03 06:18:14;;;;;;;60.50;31.10;;;;;;;;;;4955792;28;20216;-76
2023/03/03 06:20:41;;;;;;;57.50;31.77;;;;;;;;;;4953087;28;20228;-75
2023/03/03 06:23:09;;;;;;;64.47;33.00;;;;;;;;;;4957130;28;20207;-76
2023/03/03 06:25:36;;;;;;;59.37;32.97;;;;;;;;;;4951943;28;20203;-74
2023/03/03 06:28:03;;;;;;;61.00;32.87;;;;;;;;;;4951900;28;20208;-76
2023/03/03 06:30:30;;;;;;;57.37;31.77;;;;;;;;;;4950710;28;20233;-75
2023/03/03 06:32:57;;;;;;;61.33;32.57;;;;;;;;;;4953594;28;20212;-76
2023/03/03 06:35:25;;;;;;;64.93;33.47;;;;;;;;;;4952837;28;20710;-75
2023/03/03 06:37:52;;;;;;;60.97;32.57;;;;;;;;;;4959866;28;20255;-74
2023/03/03 06:40:19;;;;;;;59.93;31.80;;;;;;;;;;4957862;28;20232;-77
2023/03/03 06:42:47;;;;;;;56.57;32.27;;;;;;;;;;4957665;28;21164;-76
2023/03/03 06:45:16;;;;;;;60.07;32.97;;;;;;;;;;4966253;28;20205;-76
2023/03/03 06:47:44;;;;;;;60.77;31.97;;;;;;;;;;4963942;28;20206;-75
2023/03/03 06:50:12;;;;;;;59.83;33.53;;;;;;;;;;4960023;28;20697;-77
2023/03/03 06:52:39;;;;;;;59.77;32.60;;;;;;;;;;4968566;28;20251;-75
2023/03/03 06:55:11;;;;;;;55.40;30.80;;;;;;;;;;4969187;28;20204;-75
2023/03/03 06:57:38;;;;;;;56.80;32.47;;;;;;;;;;4961565;28;20220;-76
2023/03/03 07:00:14;;;;;;;62.37;31.77;;;;;;;;;;4964466;28;20841;-75
2023/03/03 07:02:42;;;;;;;58.83;32.37;;;;;;;;;;4963691;28;20204;-78
2023/03/03 07:05:15;;;;;;;58.13;32.03;;;;;;;;;;4959630;28;20689;-77
2023/03/03 07:07:42;;;;;;;59.37;31.87;;;;;;;;;;4970686;28;20221;-74
2023/03/03 07:10:25;;;;;;;65.63;34.77;;;;;;;;;;4960720;28;20212;-76
2023/03/03 07:12:53;;;;;;;57.27;31.63;;;;;;;;;;4963449;28;20200;-76
2023/03/03 07:15:29;;;;;;;59.77;31.70;;;;;;;;;;4966222;28;20203;-75
2023/03/03 07:18:01;;;;;;;54.80;31.50;;;;;;;;;;4958745;28;20508;-77
2023/03/03 07:20:40;;;;;;;53.63;31.53;;;;;;;;;;4965418;28;20227;-75
2023/03/03 07:23:28;;;;;;;58.43;32.37;;;;;;;;;;4968334;28;20742;-77
2023/03/03 07:25:55;;;;;;;60.13;33.27;;;;;;;;;;4957619;28;20204;-75
2023/03/03 07:28:29;;;;;;;64.27;32.60;;;;;;;;;;4953576;28;20233;-77
2023/03/03 07:30:57;;;;;;;59.50;32.47;;;;;;;;;;4956743;28;20235;-77
2023/03/03 07:33:24;;;;;;;59.60;32.37;;;;;;;;;;4992407;28;20225;-77
2023/03/03 07:35:53;;;;;;;59.53;34.83;;;;;;;;;;4972320;28;20213;-77
2023/03/03 07:38:29;;;;;;;56.73;31.77;;;;;;;;;;4967176;28;20235;-77
2023/03/03 07:41:00;;;;;;;59.83;32.43;;;;;;;;;;4966791;28;20235;-76
2023/03/03 07:43:33;;;;;;;59.73;33.73;;;;;;;;;;4957785;28;20626;-77
2023/03/03 07:46:10;;;;;;;58.77;31.50;;;;;;;;;;4949348;28;20220;-76
2023/03/03 07:48:41;;;;;;;62.73;32.77;;;;;;;;;;4955291;28;21401;-75
2023/03/03 07:51:16;;;;;;;58.47;32.67;;;;;;;;;;4953023;28;20232;-76
2023/03/03 07:53:43;;;;;;;56.43;30.77;;;;;;;;;;4954767;28;20206;-77
2023/03/03 07:56:21;;;;;;;59.73;32.03;;;;;;;;;;4946589;28;20216;-74
2023/03/03 07:58:48;;;;;;;57.60;32.40;;;;;;;;;;4952715;28;20207;-74
2023/03/03 08:01:39;;;;;;;57.53;31.07;;;;;;;;;;4946883;28;21085;-76
2023/03/03 08:04:13;;;;;;;58.87;31.73;;;;;;;;;;4941719;28;20788;-74
2023/03/03 08:06:48;;;;;;;56.50;31.77;;;;;;;;;;4943600;28;20244;-76
2023/03/03 08:09:15;;;;;;;57.10;30.83;;;;;;;;;;4953123;28;20810;-74
2023/03/03 08:11:57;;;;;;;55.50;32.50;;;;;;;;;;4953893;28;20232;-77
2023/03/03 08:14:27;;;;;;;54.47;30.43;;;;;;;;;;4964400;28;20245;-75
2023/03/03 08:16:55;;;;;;;55.93;30.43;;;;;;;;;;4969678;28;20232;-76
2023/03/03 08:19:23;;;;;;;53.30;30.47;;;;;;;;;;4970123;28;20216;-76
2023/03/03 08:21:51;;;;;;;57.13;29.73;;;;;;;;;;4972335;28;20224;-76
2023/03/03 08:24:18;;;;;;;55.87;29.30;;;;;;;;;;4952973;28;20213;-75
2023/03/03 08:26:45;;;;;;;53.17;29.37;;;;;;;;;;4954486;28;20212;-75
2023/03/03 08:29:13;;;;;;;56.20;29.60;;;;;;;;;;4946812;28;20672;-74
2023/03/03 08:31:40;;;;;;;52.70;29.50;;;;;;;;;;4955651;28;20235;-76
2023/03/03 08:34:08;;;;;;;54.73;30.67;;;;;;;;;;4955741;28;20217;-75
2023/03/03 08:36:35;;;;;;;56.97;31.27;;;;;;;;;;4951770;28;20223;-73
2023/03/03 08:39:04;;;;;;;49.70;28.80;;;;;;;;;;4955105;28;20208;-77
2023/03/03 08:41:31;;;;;;;56.10;30.30;;;;;;;;;;4944155;28;20243;-76
2023/03/03 08:43:58;;;;;;;52.13;29.53;;;;;;;;;;4953012;28;20259;-76
2023/03/03 08:46:27;;;;;;;50.93;28.53;;;;;;;;;;4952988;28;20200;-76
2023/03/03 08:48:54;;;;;;;50.80;28.20;;;;;;;;;;4969429;28;20260;-74
2023/03/03 08:51:22;;;;;;;49.70;29.17;;;;;;;;;;4950719;28;20229;-77
2023/03/03 08:53:49;;;;;;;51.53;29.63;;;;;;;;;;4955659;28;20209;-74
2023/03/03 08:56:17;;;;;;;49.67;28.63;;;;;;;;;;4957540;28;20215;-75
2023/03/03 08:58:46;;;;;;;47.97;28.07;;;;;;;;;;4961722;28;20224;-76
2023/03/03 09:01:28;;;;;;;51.83;27.77;;;;;;;;;;4963044;28;20872;-74
2023/03/03 09:03:55;;;;;;;50.60;29.17;;;;;;;;;;4962270;28;21599;-77
2023/03/03 09:06:23;;;;;;;48.17;29.20;;;;;;;;;;4962102;28;20208;-74
2023/03/03 09:08:50;;;;;;;54.63;29.37;;;;;;;;;;4958948;28;20716;-74
2023/03/03 09:11:24;;;;;;;48.90;27.87;;;;;;;;;;4957570;28;20258;-74
2023/03/03 09:14:09;;;;;;;51.13;28.30;;;;;;;;;;4954988;28;20290;-76
2023/03/03 09:16:38;;;;;;;50.03;27.93;;;;;;;;;;4952580;28;20343;-77
2023/03/03 09:19:19;;;;;;;46.57;27.63;;;;;;;;;;4961169;28;20687;-75
2023/03/03 09:21:46;;;;;;;50.70;27.33;;;;;;;;;;4952328;28;20271;-75
2023/03/03 09:24:23;;;;;;;51.90;28.23;;;;;;;;;;4953350;28;20803;-74
2023/03/03 09:26:51;;;;;;;47.57;28.87;;;;;;;;;;4958379;28;20208;-77
2023/03/03 09:29:30;;;;;;;43.40;28.17;;;;;;;;;;4955501;28;20251;-75
2023/03/03 09:31:59;;;;;;;47.77;27.93;;;;;;;;;;4959921;28;20232;-76
2023/03/03 09:34:27;;;;;;;44.33;26.00;;;;;;;;;;4970400;28;20305;-74
2023/03/03 09:36:55;;;;;;;48.30;29.70;;;;;;;;;;4962562;28;20304;-75
2023/03/03 09:39:24;;;;;;;49.47;27.37;;;;;;;;;;4972911;28;20231;-75
2023/03/03 09:41:51;;;;;;;46.60;27.13;;;;;;;;;;4966334;28;20703;-76
2023/03/03 09:44:27;;;;;;;46.93;28.43;;;;;;;;;;4959753;28;20299;-73
2023/03/03 09:47:03;;;;;;;46.93;27.43;;;;;;;;;;4958479;28;20251;-76
2023/03/03 09:49:32;;;;;;;44.93;26.83;;;;;;;;;;4964109;28;20732;-75
2023/03/03 09:52:02;;;;;;;44.60;25.53;;;;;;;;;;4963828;28;20577;-76
2023/03/03 09:54:55;;;;;;;42.57;26.00;;;;;;;;;;4959148;28;20215;-77
2023/03/03 09:57:25;;;;;;;41.13;25.43;;;;;;;;;;4959886;28;21041;-77
2023/03/03 09:59:58;;;;;;;43.33;26.60;;;;;;;;;;4954600;28;20212;-76
2023/03/03 10:02:29;;;;;;;46.40;27.33;;;;;;;;;;4954214;28;20200;-74
2023/03/03 10:04:59;;;;;;;43.50;26.30;;;;;;;;;;4959155;28;20215;-74
2023/03/03 10:07:26;;;;;;;45.27;26.83;;;;;;;;;;4953724;28;20204;-74
2023/03/03 10:10:07;;;;;;;45.23;27.13;;;;;;;;;;4955825;28;20200;-73
2023/03/03 10:12:43;;;;;;;45.77;27.27;;;;;;;;;;4954483;28;20196;-75
2023/03/03 10:15:29;;;;;;;44.30;27.23;;;;;;;;;;4952561;28;20204;-77
2023/03/03 10:18:06;;;;;;;44.90;25.83;;;;;;;;;;4953468;28;20208;-75
2023/03/03 10:20:51;;;;;;;49.93;27.73;;;;;;;;;;4949170;28;20243;-74
2023/03/03 10:23:22;;;;;;;45.23;28.07;;;;;;;;;;4945824;28;20204;-74
2023/03/03 10:25:56;;;;;;;48.40;27.33;;;;;;;;;;4952643;28;20204;-73
2023/03/03 10:28:45;;;;;;;44.50;27.13;;;;;;;;;;4958707;28;20295;-74
2023/03/03 10:31:31;;;;;;;44.00;26.23;;;;;;;;;;4955462;28;20378;-74
2023/03/03 10:34:19;;;;;;;47.07;27.23;;;;;;;;;;4951581;28;20223;-75
2023/03/03 10:37:05;;;;;;;45.17;25.93;;;;;;;;;;4948568;28;22614;-76
2023/03/03 10:39:50;;;;;;;44.67;26.57;;;;;;;;;;4950975;28;20266;-74
2023/03/03 10:42:27;;;;;;;42.40;27.00;;;;;;;;;;4962004;28;20285;-73
2023/03/03 10:45:12;;;;;;;41.37;26.80;;;;;;;;;;4963564;28;20215;-76
2023/03/03 10:48:15;;;;;;;41.33;25.50;;;;;;;;;;4958001;28;20208;-74
2023/03/03 10:50:50;;;;;;;41.33;24.57;;;;;;;;;;4925255;28;20229;-75
2023/03/03 10:53:25;;;;;;;41.80;24.37;;;;;;;;;;4960583;28;20211;-77
2023/03/03 10:56:01;;;;;;;39.67;24.57;;;;;;;;;;4960083;28;20831;-76
2023/03/03 10:58:39;;;;;;;39.27;24.60;;;;;;;;;;4956931;28;20219;-74
2023/03/03 11:01:07;;;;;;;40.43;24.83;;;;;;;;;;4957292;28;22127;-76
2023/03/03 11:03:53;;;;;;;37.57;24.00;;;;;;;;;;4950123;28;20209;-74
2023/03/03 11:06:39;;;;;;;33.93;23.03;;;;;;;;;;4946446;28;21176;-74
2023/03/03 11:09:09;;;;;;;38.03;24.80;;;;;;;;;;4949575;28;20201;-75
2023/03/03 11:11:40;;;;;;;37.53;23.40;;;;;;;;;;4947857;28;22061;-75
2023/03/03 11:14:21;;;;;;;37.67;23.00;;;;;;;;;;4952200;28;20216;-74
2023/03/03 11:16:52;;;;;;;37.40;23.70;;;;;;;;;;4968852;28;20220;-76
2023/03/03 11:19:39;;;;;;;35.30;23.33;;;;;;;;;;4975134;28;20213;-73
2023/03/03 11:22:13;;;;;;;38.77;23.37;;;;;;;;;;4959589;28;20229;-76
2023/03/03 11:25:00;;;;;;;45.37;28.27;;;;;;;;;;4978397;28;20666;-75
2023/03/03 11:27:31;;;;;;;36.63;24.13;;;;;;;;;;4966584;28;20211;-75
2023/03/03 11:29:58;;;;;;;39.90;25.33;;;;;;;;;;4959625;28;20236;-75
2023/03/03 11:32:38;;;;;;;38.33;25.00;;;;;;;;;;4958789;28;20239;-75
2023/03/03 11:35:20;;;;;;;34.83;23.37;;;;;;;;;;4962445;28;20212;-74
2023/03/03 11:37:58;;;;;;;43.67;25.50;;;;;;;;;;4960944;28;20220;-74
2023/03/03 11:40:46;;;;;;;35.77;24.27;;;;;;;;;;4955870;28;20857;-74
2023/03/03 11:43:18;;;;;;;37.93;24.33;;;;;;;;;;4961509;28;20223;-75
2023/03/03 11:46:08;;;;;;;37.70;24.33;;;;;;;;;;4974714;28;20262;-76
2023/03/03 11:48:38;;;;;;;37.83;24.60;;;;;;;;;;4975520;28;20205;-74
2023/03/03 11:51:07;;;;;;;39.20;25.27;;;;;;;;;;4974720;28;20228;-76
2023/03/03 11:53:46;;;;;;;37.43;24.80;;;;;;;;;;4974844;28;20208;-75
2023/03/03 11:56:49;;;;;;;39.40;24.23;;;;;;;;;;4977204;28;20223;-76
2023/03/03 11:59:29;;;;;;;41.13;24.67;;;;;;;;;;4957963;28;20211;-73
2023/03/03 12:01:57;;;;;;;42.53;26.07;;;;;;;;;;4963028;28;20243;-75
2023/03/03 12:04:29;;;;;;;38.53;24.33;;;;;;;;;;4955699;28;20212;-74
2023/03/03 12:07:10;;;;;;;38.27;24.87;;;;;;;;;;4957565;28;20283;-74
2023/03/03 12:09:52;;;;;;;39.67;25.43;;;;;;;;;;4966514;28;20200;-74
2023/03/03 12:12:38;;;;;;;37.97;23.37;;;;;;;;;;4963693;28;20228;-74
2023/03/03 12:15:22;;;;;;;41.20;23.77;;;;;;;;;;4971178;28;20205;-77
2023/03/03 12:18:08;;;;;;;39.77;24.17;;;;;;;;;;4973990;28;20277;-74
2023/03/03 12:20:54;;;;;;;36.53;24.43;;;;;;;;;;4973890;28;20239;-75
2023/03/03 12:23:24;;;;;;;38.33;25.03;;;;;;;;;;4967465;28;20213;-73
2023/03/03 12:25:58;;;;;;;37.80;24.03;;;;;;;;;;4964495;28;20674;-74
2023/03/03 12:28:28;;;;;;;37.77;24.80;;;;;;;;;;4956396;28;20818;-75
2023/03/03 12:31:08;;;;;;;39.67;25.10;;;;;;;;;;4959300;28;20243;-75
2023/03/03 12:33:52;;;;;;;38.50;24.17;;;;;;;;;;4956640;28;21163;-76
2023/03/03 12:36:20;;;;;;;38.00;24.47;;;;;;;;;;4956743;28;20304;-75
2023/03/03 12:38:47;;;;;;;38.77;25.33;;;;;;;;;;4951048;28;20212;-75
2023/03/03 12:41:23;;;;;;;38.53;25.17;;;;;;;;;;4957490;28;20261;-76
2023/03/03 12:44:11;;;;;;;38.37;23.83;;;;;;;;;;4963427;28;20216;-75
2023/03/03 12:46:57;;;;;;;37.60;25.13;;;;;;;;;;4956323;28;20208;-76
2023/03/03 12:49:30;;;;;;;35.80;23.57;;;;;;;;;;4959403;28;20221;-74
2023/03/03 12:52:09;;;;;;;34.37;23.70;;;;;;;;;;4957252;28;20239;-76
2023/03/03 12:54:42;;;;;;;38.73;25.67;;;;;;;;;;4957675;28;20232;-75
2023/03/03 12:57:12;;;;;;;42.30;25.53;;;;;;;;;;4959032;28;20235;-75
2023/03/03 12:59:49;;;;;;;33.47;24.33;;;;;;;;;;4950872;28;20226;-74
2023/03/03 13:02:35;;;;;;;37.80;23.57;;;;;;;;;;4951205;28;20232;-75
2023/03/03 13:05:02;;;;;;;36.47;24.20;;;;;;;;;;4950013;28;20215;-72
2023/03/03 13:07:44;;;;;;;34.60;22.90;;;;;;;;;;4961084;28;20292;-74
2023/03/03 13:10:23;;;;;;;39.83;23.57;;;;;;;;;;4952264;28;20219;-74
2023/03/03 13:12:55;;;;;;;33.80;22.33;;;;;;;;;;4950395;28;20670;-74
2023/03/03 13:15:28;;;;;;;37.40;24.20;;;;;;;;;;4958274;28;20618;-73
2023/03/03 13:18:06;;;;;;;37.50;24.23;;;;;;;;;;4955485;28;20204;-74
2023/03/03 13:20:44;;;;;;;32.87;22.70;;;;;;;;;;4952828;28;20235;-78
2023/03/03 13:23:24;;;;;;;34.23;23.00;;;;;;;;;;4954733;28;20387;-73
2023/03/03 13:25:57;;;;;;;32.63;21.83;;;;;;;;;;4958984;28;20204;-74
2023/03/03 13:28:34;;;;;;;34.87;22.77;;;;;;;;;;4955975;28;20295;-75
2023/03/03 13:31:05;;;;;;;39.27;22.37;;;;;;;;;;4966265;28;20246;-75
2023/03/03 13:33:35;;;;;;;31.27;21.67;;;;;;;;;;4986968;28;20590;-73
2023/03/03 13:36:08;;;;;;;39.77;24.33;;;;;;;;;;4983566;28;20284;-76
2023/03/03 13:38:45;;;;;;;37.47;24.03;;;;;;;;;;4982802;28;20578;-75
2023/03/03 13:41:25;;;;;;;35.93;23.53;;;;;;;;;;4986571;28;20235;-76
2023/03/03 13:44:13;;;;;;;35.77;22.27;;;;;;;;;;4975275;28;20200;-75
2023/03/03 13:46:49;;;;;;;39.57;26.10;;;;;;;;;;4970816;28;20682;-76
2023/03/03 13:49:22;;;;;;;36.57;23.47;;;;;;;;;;4973754;28;20254;-74
2023/03/03 13:51:53;;;;;;;34.97;23.00;;;;;;;;;;4959382;28;20235;-75
2023/03/03 13:54:36;;;;;;;32.70;22.33;;;;;;;;;;4959491;28;20222;-77
2023/03/03 13:57:18;;;;;;;31.60;21.73;;;;;;;;;;4959613;28;20356;-74
2023/03/03 14:00:01;;;;;;;40.00;23.80;;;;;;;;;;4959850;28;20227;-74
2023/03/03 14:02:41;;;;;;;37.03;21.87;;;;;;;;;;4964421;28;20327;-76
2023/03/03 14:05:31;;;;;;;34.70;21.53;;;;;;;;;;4959071;28;20211;-76
2023/03/03 14:08:02;;;;;;;32.97;21.97;;;;;;;;;;4947720;28;20204;-77
2023/03/03 14:10:29;;;;;;;32.80;21.80;;;;;;;;;;4968779;28;20255;-76
2023/03/03 14:13:03;;;;;;;36.07;21.87;;;;;;;;;;4967888;28;20217;-74
2023/03/03 14:15:42;;;;;;;35.20;21.27;;;;;;;;;;4979873;28;20674;-74
2023/03/03 14:18:18;;;;;;;33.70;22.27;;;;;;;;;;4965442;28;20694;-75
2023/03/03 14:21:12;;;;;;;32.43;22.00;;;;;;;;;;4979345;28;20223;-75
2023/03/03 14:23:56;;;;;;;30.37;19.47;;;;;;;;;;4969701;28;20262;-74
2023/03/03 14:26:23;;;;;;;29.93;20.40;;;;;;;;;;4983427;28;20684;-76
2023/03/03 14:29:03;;;;;;;32.17;21.60;;;;;;;;;;4969210;28;20207;-77
2023/03/03 14:31:37;;;;;;;35.90;22.83;;;;;;;;;;4968080;28;20232;-74
2023/03/03 14:34:11;;;;;;;37.37;23.40;;;;;;;;;;4967488;28;20227;-75
2023/03/03 14:36:39;;;;;;;39.10;23.03;;;;;;;;;;4973008;28;20204;-74
2023/03/03 14:39:24;;;;;;;37.77;21.87;;;;;;;;;;4970210;28;20240;-75
2023/03/03 14:41:52;;;;;;;38.37;22.90;;;;;;;;;;4970557;28;20232;-74
2023/03/03 14:44:27;;;;;;;37.63;23.17;;;;;;;;;;4975565;28;20288;-76